KFLP

Marion County Regional Airport

Flippin, Arkansas, USA
METAR KFLP 170556Z AUTO 18003KT 10SM -RA OVC090 08/02 A3009 RMK AO2 RAB03 SLP189 P0000 60000 T00780022 10106 20078 401501022 55004
Observed Flight Rules
Dec-17 @ 05:56 UTC (20 minutes ago) Visual Flight Rules
Wind Visibility Clouds Conditions
180° at 3 knots 10 miles
  • Overcast at 9,000' AGL
  • Light Rain
Temperatures Readings Precipitation
Current 8°C / 46°F
Dewpoint 2°C / 36°F
Humidity 66%
Altimeter 30.09" Hg
Pressure 1018.9 hPa
Elevation 219
Current Rain 0.005
METAR KFLP 170556Z AUTO 18003KT 10SM -RA OVC090 08/02 A3009 RMK AO2 RAB03 SLP189 P0000 60000 T00780022 10106 20078 401501022 55004
Observed Flight Rules
Dec-17 @ 05:56 UTC
(20 minutes ago)
VFR
Wind Visibility
180° at 3 knots 10 miles
Clouds
  • Overcast at 9,000' AGL
Conditions
  • Light Rain
Temperature Dewpoint
8°C / 46°F 2°C / 36°F
Humidity Altimeter Pressure
66% 30.09" Hg 1018.9 hPa
Current Rain
0.005